Terminal Aerodrome Forecast
Issued by NWS Jackson, KY

Home | Current Version | Previous Version | Text Only | Print | Product List | Glossary On
Versions: 1 2 3 4 5 6 7 8 9 10 11 12 13 14 15 16 17
468
FTUS43 KJKL 291740 AAB
TAFJKL
TAF AMD
KJKL 291740Z 2918/3018 25004KT P6SM SCT050 SCT250
     FM300100 00000KT P6SM SCT250
     FM301500 27004KT P6SM SCT025
     FM301700 26005KT P6SM VCSH SCT080=

USA.gov is the U.S. government's official web portal to all federal, state and local government web resources and services.